Time;durP1;ratioP1;P1;durP2;ratioP2;P2;SDS_P1;SDS_P2;PMS_P1;PMS_P2;Temp;Humidity;BMP_temperature;BMP_pressure;BME280_temperature;BME280_humidity;BME280_pressure;Samples;Min_cycle;Max_cycle;Signal;HPM_P1;HPM_P2
2021/05/08 00:11:44;;;;;;;0.50;0.50;;;13.30;99.90;;;;;;5008848;28;20096;-84
2021/05/08 00:26:58;;;;;;;1.27;0.68;;;13.20;99.90;;;;;;5813827;22;20449;-86
2021/05/08 00:47:24;;;;;;;1.73;0.60;;;13.20;99.90;;;;;;5019120;28;20369;-86
2021/05/08 01:07:04;;;;;;;0.60;0.60;;;13.20;99.90;;;;;;5033733;28;20040;-82
2021/05/08 01:19:54;;;;;;;1.77;1.00;;;13.10;99.90;;;;;;5013478;28;20114;-82
2021/05/08 01:36:38;;;;;;;;;;;;;;;;;;;;;
2021/05/08 01:46:38;;;;;;;0.80;0.80;;;13.10;99.90;;;;;;4953643;28;20046;-82
2021/05/08 02:14:02;;;;;;;4.15;0.77;;;13.10;99.90;;;;;;5041605;28;20040;-83
2021/05/08 02:46:11;;;;;;;0.80;0.80;;;13.00;99.90;;;;;;5020055;28;20146;-82
2021/05/08 02:48:37;;;;;;;0.90;0.70;;;13.00;99.90;;;;;;5021423;28;20033;-84
2021/05/08 02:51:03;;;;;;;1.85;0.77;;;13.00;99.90;;;;;;5041137;28;20076;-83
2021/05/08 02:53:28;;;;;;;0.93;0.93;;;13.00;99.90;;;;;;5041894;28;20110;-82
2021/05/08 02:55:54;;;;;;;1.00;0.90;;;13.00;99.90;;;;;;5010102;28;20030;-84
2021/05/08 02:58:20;;;;;;;3.90;0.88;;;13.00;99.90;;;;;;5032690;28;20077;-83
2021/05/08 03:05:54;;;;;;;0.82;0.63;;;13.00;99.90;;;;;;5108159;23;20054;-84
2021/05/08 03:08:19;;;;;;;4.03;0.90;;;13.00;99.90;;;;;;5007814;28;20026;-83
2021/05/08 04:27:12;;;;;;;1.00;0.88;;;12.70;99.90;;;;;;5019885;28;20172;-81
2021/05/08 04:43:15;;;;;;;3.35;1.00;;;13.20;99.90;;;;;;5312973;23;20144;-84
2021/05/08 04:45:41;;;;;;;2.28;0.80;;;13.90;99.90;;;;;;5008995;28;20113;-83
2021/05/08 04:48:06;;;;;;;0.70;0.70;;;14.40;99.90;;;;;;5006020;28;20048;-83
2021/05/08 04:50:32;;;;;;;0.75;0.75;;;14.50;99.90;;;;;;5010463;28;20384;-83
2021/05/08 05:36:40;;;;;;;0.57;0.57;;;17.70;99.90;;;;;;5032882;28;20115;-84
2021/05/08 06:30:28;;;;;;;1.80;0.70;;;20.80;98.10;;;;;;4971292;28;20042;-85
2021/05/08 06:32:53;;;;;;;0.63;0.63;;;20.80;96.90;;;;;;5032151;23;20054;-85
2021/05/08 06:35:19;;;;;;;0.80;0.50;;;21.10;97.60;;;;;;5010960;28;20052;-85
2021/05/08 06:44:48;;;;;;;25.80;1.35;;;23.50;92.00;;;;;;5031632;28;20032;-78
2021/05/08 06:47:15;;;;;;;1.20;0.55;;;23.90;93.90;;;;;;5015800;28;20545;-78
2021/05/08 06:49:42;;;;;;;1.70;0.47;;;23.90;89.60;;;;;;5034465;28;20029;-77
2021/05/08 06:52:08;;;;;;;1.92;0.40;;;23.00;91.10;;;;;;5019185;28;20070;-78
2021/05/08 06:54:34;;;;;;;0.85;0.68;;;22.50;90.80;;;;;;5014827;28;20521;-78
2021/05/08 06:56:59;;;;;;;0.60;0.60;;;22.00;90.90;;;;;;5011487;28;20026;-78
2021/05/08 06:59:25;;;;;;;0.70;0.45;;;21.70;91.50;;;;;;4998209;28;20041;-79
2021/05/08 07:01:52;;;;;;;2.30;0.73;;;21.80;91.60;;;;;;5013314;28;20034;-79
2021/05/08 07:04:17;;;;;;;0.80;0.60;;;21.70;91.20;;;;;;5015888;28;20025;-79
2021/05/08 07:06:43;;;;;;;0.52;0.52;;;21.90;91.40;;;;;;5015468;28;20390;-79
2021/05/08 07:09:09;;;;;;;6.05;0.60;;;21.80;91.20;;;;;;5015580;28;20052;-78
2021/05/08 07:11:35;;;;;;;3.83;1.25;;;21.50;91.00;;;;;;5015624;28;20037;-79
2021/05/08 07:14:01;;;;;;;2.13;0.75;;;20.90;92.00;;;;;;5015536;28;20050;-76
2021/05/08 07:16:27;;;;;;;7.28;0.80;;;20.60;92.30;;;;;;5015457;28;20397;-78
2021/05/08 07:18:52;;;;;;;4.13;0.70;;;20.20;92.10;;;;;;5015340;28;20045;-76
2021/05/08 07:21:18;;;;;;;1.60;0.80;;;20.00;92.10;;;;;;5011686;28;20442;-77
2021/05/08 07:23:44;;;;;;;0.85;0.80;;;19.70;92.70;;;;;;5014990;28;20022;-77
2021/05/08 07:26:09;;;;;;;3.42;0.90;;;19.40;93.30;;;;;;5014669;28;20475;-83
2021/05/08 07:28:35;;;;;;;0.75;0.75;;;19.20;93.10;;;;;;5008777;28;20042;-77
2021/05/08 07:31:01;;;;;;;4.22;0.80;;;19.20;92.10;;;;;;5001206;28;20097;-80
2021/05/08 07:33:26;;;;;;;1.48;0.82;;;19.00;93.20;;;;;;5015170;28;20046;-76
2021/05/08 07:35:52;;;;;;;1.25;0.70;;;19.10;93.80;;;;;;5006515;28;20444;-78
2021/05/08 07:38:19;;;;;;;2.42;0.85;;;19.10;93.90;;;;;;5005680;28;20038;-75
2021/05/08 07:40:50;;;;;;;0.63;0.60;;;19.10;94.10;;;;;;5011128;28;20041;-77
2021/05/08 07:43:19;;;;;;;4.43;0.90;;;18.90;94.20;;;;;;5013475;28;20060;-75
2021/05/08 07:45:45;;;;;;;0.80;0.77;;;18.70;94.40;;;;;;5014422;28;20030;-77
2021/05/08 07:48:11;;;;;;;2.00;0.68;;;18.50;94.70;;;;;;5010835;28;20033;-75
2021/05/08 07:50:37;;;;;;;3.67;1.10;;;18.60;94.00;;;;;;5016506;28;20026;-75
2021/05/08 07:53:03;;;;;;;1.38;0.80;;;18.50;94.40;;;;;;5013732;28;20045;-75
2021/05/08 07:55:29;;;;;;;5.55;1.20;;;18.50;94.10;;;;;;5005718;28;20081;-74
2021/05/08 07:57:55;;;;;;;1.77;1.50;;;18.50;94.20;;;;;;5005733;28;20073;-75
2021/05/08 08:00:21;;;;;;;0.85;0.80;;;18.50;94.50;;;;;;5011714;28;20064;-73
2021/05/08 08:02:51;;;;;;;2.38;0.93;;;18.60;94.60;;;;;;5011332;28;20081;-76
2021/05/08 08:05:17;;;;;;;0.70;0.70;;;18.70;94.30;;;;;;4996831;28;20026;-77
2021/05/08 08:07:43;;;;;;;1.05;0.80;;;18.90;94.70;;;;;;5008488;28;20034;-73
2021/05/08 08:10:10;;;;;;;1.83;0.98;;;18.90;94.50;;;;;;5004514;28;20042;-75
2021/05/08 08:12:38;;;;;;;3.80;0.85;;;18.90;94.90;;;;;;5009620;28;20042;-77
2021/05/08 08:15:06;;;;;;;3.50;1.00;;;18.90;95.10;;;;;;5004118;28;20025;-75
2021/05/08 08:17:33;;;;;;;2.25;0.80;;;18.90;95.80;;;;;;5006958;28;20026;-76
2021/05/08 08:19:59;;;;;;;0.60;0.60;;;19.00;95.20;;;;;;5013163;28;20030;-74
2021/05/08 08:22:25;;;;;;;1.50;0.77;;;19.20;95.20;;;;;;5012967;28;20029;-74
2021/05/08 08:24:51;;;;;;;1.58;0.70;;;19.30;95.60;;;;;;5011551;28;20519;-75
2021/05/08 08:27:17;;;;;;;0.85;0.85;;;19.30;94.80;;;;;;5009602;28;20094;-74
2021/05/08 08:29:42;;;;;;;7.20;1.10;;;19.20;94.90;;;;;;5009529;28;20052;-75
2021/05/08 08:32:08;;;;;;;2.22;0.80;;;19.30;95.30;;;;;;5012853;28;20111;-73
2021/05/08 08:34:34;;;;;;;2.05;0.88;;;19.40;94.50;;;;;;5009629;28;20104;-74
2021/05/08 08:37:01;;;;;;;3.90;0.80;;;19.50;94.50;;;;;;5011423;28;20034;-75
2021/05/08 08:39:27;;;;;;;2.60;1.00;;;19.40;93.10;;;;;;5008757;28;20382;-75
2021/05/08 08:41:53;;;;;;;3.63;1.00;;;19.10;93.40;;;;;;5014683;28;20042;-75
2021/05/08 08:44:19;;;;;;;0.88;0.73;;;19.30;93.50;;;;;;5006659;28;20148;-75
2021/05/08 08:46:46;;;;;;;3.58;0.80;;;19.50;93.20;;;;;;5013438;28;20030;-73
2021/05/08 08:49:13;;;;;;;1.90;0.95;;;19.70;94.30;;;;;;5012780;28;20506;-75
2021/05/08 08:51:40;;;;;;;5.55;0.88;;;19.70;91.50;;;;;;5014660;28;20026;-74
2021/05/08 08:54:06;;;;;;;1.15;0.85;;;19.80;91.60;;;;;;5015678;28;20062;-74
2021/05/08 08:56:41;;;;;;;1.48;1.10;;;19.70;91.30;;;;;;5014161;28;20056;-80
2021/05/08 08:59:30;;;;;;;2.47;0.80;;;19.60;90.90;;;;;;5014432;28;20030;-74
2021/05/08 09:01:54;;;;;;;1.88;0.80;;;19.60;90.80;;;;;;5001888;28;20602;-75
2021/05/08 09:04:21;;;;;;;7.05;1.10;;;19.80;90.50;;;;;;5005040;28;20057;-74
2021/05/08 09:06:48;;;;;;;1.17;0.88;;;19.70;90.60;;;;;;5012164;28;20026;-73
2021/05/08 09:09:15;;;;;;;0.98;0.85;;;19.60;90.60;;;;;;5005382;28;20045;-75
2021/05/08 09:11:46;;;;;;;1.80;1.02;;;19.60;91.20;;;;;;5012984;28;20517;-74
2021/05/08 09:14:30;;;;;;;2.65;0.88;;;19.70;91.10;;;;;;5009777;28;20109;-74
2021/05/08 09:17:16;;;;;;;13.40;0.82;;;19.90;91.20;;;;;;5011958;28;20053;-74
2021/05/08 09:19:49;;;;;;;3.85;0.93;;;20.00;91.60;;;;;;5010624;28;20112;-75
2021/05/08 09:22:34;;;;;;;1.17;0.80;;;20.10;91.60;;;;;;5010196;28;20050;-72
2021/05/08 09:25:14;;;;;;;2.38;0.98;;;20.10;91.20;;;;;;5007891;28;20050;-73
2021/05/08 09:27:53;;;;;;;0.80;0.70;;;20.00;90.80;;;;;;5012597;28;20076;-74
2021/05/08 09:30:22;;;;;;;1.17;0.90;;;20.10;91.60;;;;;;5011942;28;20064;-73
2021/05/08 09:32:51;;;;;;;1.88;0.63;;;20.10;91.60;;;;;;5012648;28;20038;-73
2021/05/08 09:35:25;;;;;;;17.20;1.30;;;20.10;92.00;;;;;;5007635;28;20422;-72
2021/05/08 09:38:05;;;;;;;6.38;1.10;;;20.20;91.90;;;;;;5012621;28;20577;-72
2021/05/08 09:40:31;;;;;;;1.73;0.70;;;20.30;91.90;;;;;;5012843;28;20041;-73
2021/05/08 09:42:58;;;;;;;4.20;0.80;;;20.30;91.60;;;;;;5012215;28;20486;-74
2021/05/08 09:45:26;;;;;;;4.35;1.23;;;20.40;91.50;;;;;;5012190;28;20018;-73
2021/05/08 09:47:53;;;;;;;17.20;0.98;;;20.60;92.00;;;;;;5011878;28;20172;-74
2021/05/08 09:50:24;;;;;;;3.63;0.73;;;20.70;92.10;;;;;;5011249;28;20108;-72
2021/05/08 09:52:56;;;;;;;1.45;1.00;;;20.80;91.30;;;;;;5011796;28;20506;-72
2021/05/08 09:55:25;;;;;;;1.15;0.80;;;20.70;90.90;;;;;;5011577;28;20037;-73
2021/05/08 09:58:05;;;;;;;2.42;0.85;;;20.80;90.10;;;;;;5014343;28;20038;-70
2021/05/08 10:00:51;;;;;;;8.90;0.98;;;20.70;91.10;;;;;;5013038;28;20034;-73
2021/05/08 10:03:18;;;;;;;6.63;1.35;;;20.70;90.30;;;;;;5010939;28;20037;-74
2021/05/08 10:06:02;;;;;;;1.48;0.98;;;20.60;90.20;;;;;;5025803;28;20042;-76
2021/05/08 10:08:28;;;;;;;5.57;0.52;;;20.60;90.90;;;;;;5011331;28;20048;-73
2021/05/08 10:10:54;;;;;;;0.88;0.80;;;20.70;90.10;;;;;;5010565;28;20109;-71
2021/05/08 10:13:20;;;;;;;0.98;0.75;;;20.80;90.70;;;;;;5011692;28;20045;-74
2021/05/08 10:15:47;;;;;;;1.70;0.80;;;20.80;91.30;;;;;;5011043;28;20049;-85
2021/05/08 10:18:14;;;;;;;1.40;0.63;;;20.90;91.20;;;;;;5004925;28;20029;-74
2021/05/08 10:20:41;;;;;;;1.15;0.73;;;21.00;90.60;;;;;;4995614;28;20080;-73
2021/05/08 10:23:11;;;;;;;1.58;0.70;;;21.00;91.00;;;;;;5010410;28;20034;-72
2021/05/08 10:25:38;;;;;;;1.92;0.70;;;21.10;90.40;;;;;;5011126;28;20026;-73
2021/05/08 10:28:05;;;;;;;2.05;0.70;;;21.20;90.40;;;;;;5010186;28;20026;-72
2021/05/08 10:30:42;;;;;;;1.20;0.57;;;21.30;89.10;;;;;;5007017;28;20307;-71
2021/05/08 10:33:11;;;;;;;1.70;0.80;;;21.20;88.10;;;;;;5005405;28;20483;-78
2021/05/08 10:35:48;;;;;;;1.27;0.73;;;21.20;89.40;;;;;;5002273;28;20479;-80
2021/05/08 10:38:23;;;;;;;0.95;0.80;;;21.30;88.40;;;;;;5010828;28;20025;-72
2021/05/08 10:40:53;;;;;;;3.67;0.50;;;21.40;88.50;;;;;;4995436;28;20117;-71
2021/05/08 10:43:47;;;;;;;2.03;0.80;;;21.40;87.80;;;;;;5010469;28;20034;-73
2021/05/08 10:46:15;;;;;;;2.95;0.70;;;21.40;87.80;;;;;;5007421;28;20041;-72
2021/05/08 10:49:09;;;;;;;2.95;0.70;;;21.40;87.50;;;;;;5010027;28;20081;-71
2021/05/08 10:51:58;;;;;;;4.38;1.10;;;21.20;87.90;;;;;;5005813;28;20026;-72
2021/05/08 10:54:44;;;;;;;0.65;0.57;;;21.10;88.90;;;;;;5009275;28;20057;-71
2021/05/08 10:57:14;;;;;;;5.35;0.95;;;21.10;90.40;;;;;;5009385;28;20082;-77
2021/05/08 11:00:02;;;;;;;1.92;1.27;;;21.20;91.30;;;;;;5010412;28;20033;-75
2021/05/08 11:02:46;;;;;;;2.95;1.00;;;21.20;91.40;;;;;;5027164;28;20056;-72
2021/05/08 11:05:22;;;;;;;2.55;1.13;;;21.30;91.50;;;;;;5004663;28;20502;-75
2021/05/08 11:07:48;;;;;;;2.97;0.70;;;21.20;90.40;;;;;;5002686;28;20030;-72
2021/05/08 11:10:32;;;;;;;1.92;1.00;;;21.20;90.60;;;;;;5003783;28;20036;-72
2021/05/08 11:13:09;;;;;;;1.80;1.00;;;21.20;90.20;;;;;;5007560;28;20513;-71
2021/05/08 11:15:50;;;;;;;4.78;1.02;;;21.10;90.20;;;;;;5010469;28;20371;-73
2021/05/08 11:18:31;;;;;;;2.03;1.15;;;21.10;90.50;;;;;;5010256;28;20030;-70
2021/05/08 11:21:06;;;;;;;1.10;0.98;;;21.20;90.50;;;;;;5010092;28;20062;-72
2021/05/08 11:23:51;;;;;;;2.22;0.90;;;21.30;90.20;;;;;;5004184;28;20093;-71
2021/05/08 11:29:04;;;;;;;7.60;1.10;;;21.20;89.20;;;;;;5000145;28;20061;-74
2021/05/08 11:31:34;;;;;;;;;;;21.30;89.60;;;;;;5012416;28;20532;-72
2021/05/08 11:34:26;;;;;;;2.97;1.15;;;21.50;88.50;;;;;;5001974;28;19925;-72
2021/05/08 11:36:51;;;;;;;2.40;1.67;;;21.60;88.20;;;;;;4998122;28;20033;-74
2021/05/08 11:39:20;;;;;;;6.90;0.80;;;21.70;88.70;;;;;;5012506;28;20668;-71
2021/05/08 11:41:49;;;;;;;5.05;1.13;;;21.90;89.10;;;;;;5003566;28;20081;-73
2021/05/08 11:44:26;;;;;;;1.55;0.88;;;22.00;88.80;;;;;;5013642;28;20026;-74
2021/05/08 11:46:56;;;;;;;1.05;0.90;;;22.10;87.00;;;;;;4999656;28;20034;-74
2021/05/08 11:49:29;;;;;;;1.85;0.80;;;22.10;85.50;;;;;;5017940;28;20030;-70
2021/05/08 11:51:55;;;;;;;3.75;1.17;;;21.90;85.70;;;;;;5012864;28;20033;-72
2021/05/08 11:54:21;;;;;;;3.30;0.80;;;21.80;87.10;;;;;;5001657;28;20136;-77
2021/05/08 11:56:47;;;;;;;1.38;0.63;;;21.80;86.80;;;;;;5011223;28;20030;-75
2021/05/08 11:59:13;;;;;;;5.32;1.20;;;21.80;88.40;;;;;;5014050;28;20044;-71
2021/05/08 12:01:38;;;;;;;1.92;1.30;;;21.80;90.00;;;;;;5011298;28;20034;-74
2021/05/08 12:04:08;;;;;;;13.85;1.10;;;21.90;90.30;;;;;;5012303;28;20033;-78
2021/05/08 12:06:34;;;;;;;2.25;0.85;;;21.80;90.80;;;;;;5012085;28;20033;-79
2021/05/08 12:09:10;;;;;;;1.85;1.05;;;21.80;90.10;;;;;;5008923;28;20072;-74
2021/05/08 12:11:37;;;;;;;3.33;0.90;;;21.70;89.40;;;;;;5012353;28;20445;-70
2021/05/08 12:14:13;;;;;;;5.07;1.17;;;21.70;90.20;;;;;;5011045;28;20034;-73
2021/05/08 12:16:40;;;;;;;4.68;1.08;;;21.80;90.30;;;;;;5011480;28;20364;-73
2021/05/08 12:19:07;;;;;;;10.38;1.20;;;21.60;90.50;;;;;;5010615;28;20038;-73
2021/05/08 12:21:32;;;;;;;1.63;1.10;;;21.60;90.30;;;;;;5010303;28;20026;-76
2021/05/08 12:23:59;;;;;;;1.38;0.90;;;21.50;91.90;;;;;;5003573;28;20034;-72
2021/05/08 12:26:24;;;;;;;0.95;0.75;;;21.30;92.40;;;;;;5010457;28;20114;-72
2021/05/08 12:28:50;;;;;;;2.20;1.02;;;21.20;91.40;;;;;;5011359;28;20111;-81
2021/05/08 12:31:21;;;;;;;5.60;1.15;;;21.10;92.60;;;;;;5008829;28;20034;-69
2021/05/08 12:33:47;;;;;;;9.75;1.30;;;21.00;92.80;;;;;;5008554;28;20073;-73
2021/05/08 12:36:15;;;;;;;4.28;0.70;;;21.00;92.00;;;;;;5010306;28;20033;-74
2021/05/08 12:38:41;;;;;;;3.33;0.90;;;20.90;92.50;;;;;;5010597;28;20026;-70
2021/05/08 12:41:32;;;;;;;2.72;1.73;;;21.00;92.90;;;;;;5011016;28;20030;-70
2021/05/08 12:44:13;;;;;;;4.35;1.20;;;21.00;91.20;;;;;;5008722;28;20409;-71
2021/05/08 12:46:56;;;;;;;2.78;1.20;;;21.00;90.60;;;;;;5010980;28;20042;-73
2021/05/08 12:49:23;;;;;;;4.25;1.10;;;21.00;90.00;;;;;;5007600;28;20064;-71
2021/05/08 12:51:49;;;;;;;3.45;1.10;;;21.00;91.50;;;;;;5009097;28;20502;-72
2021/05/08 12:54:21;;;;;;;1.05;0.90;;;21.00;91.00;;;;;;5012618;28;20053;-69
2021/05/08 12:56:48;;;;;;;2.30;1.00;;;21.00;92.40;;;;;;5010922;28;20057;-71
2021/05/08 12:59:34;;;;;;;8.63;1.58;;;20.90;92.70;;;;;;5009762;28;20033;-72
2021/05/08 13:02:20;;;;;;;4.43;1.45;;;20.90;93.70;;;;;;5006053;28;20030;-71
2021/05/08 13:04:51;;;;;;;2.33;1.10;;;20.80;93.30;;;;;;5004283;28;20053;-71
2021/05/08 13:07:20;;;;;;;1.70;1.60;;;20.80;91.90;;;;;;5004270;28;20029;-71
2021/05/08 13:09:46;;;;;;;2.47;1.40;;;20.80;91.30;;;;;;5011418;28;20038;-71
2021/05/08 13:12:13;;;;;;;0.95;0.90;;;20.80;91.60;;;;;;5009830;28;20386;-71
2021/05/08 13:14:39;;;;;;;1.40;1.00;;;20.80;91.20;;;;;;5008389;28;20494;-73
2021/05/08 13:17:07;;;;;;;7.72;1.90;;;20.80;91.00;;;;;;5009125;28;20048;-70
2021/05/08 13:19:33;;;;;;;2.00;1.90;;;20.80;91.00;;;;;;5006219;28;20036;-71
2021/05/08 13:21:59;;;;;;;2.03;1.50;;;20.90;90.50;;;;;;5004098;28;20096;-71
2021/05/08 13:24:28;;;;;;;3.05;1.48;;;21.00;90.30;;;;;;5008423;28;20029;-73
2021/05/08 13:26:55;;;;;;;6.95;2.50;;;21.10;90.40;;;;;;5006297;28;20064;-76
2021/05/08 13:29:21;;;;;;;14.07;4.72;;;21.20;90.80;;;;;;5010514;28;20026;-72
2021/05/08 13:31:46;;;;;;;3.28;2.00;;;21.20;91.00;;;;;;5005756;28;20042;-72
2021/05/08 13:34:12;;;;;;;2.33;1.40;;;21.30;90.80;;;;;;5011086;28;20042;-75
2021/05/08 13:36:38;;;;;;;1.88;1.05;;;21.20;90.50;;;;;;4998489;28;20415;-75
2021/05/08 13:39:04;;;;;;;3.15;1.02;;;21.10;90.40;;;;;;5011465;28;20073;-71
2021/05/08 13:41:30;;;;;;;2.17;1.10;;;21.10;91.60;;;;;;5011299;28;20453;-73
2021/05/08 13:43:56;;;;;;;3.17;1.40;;;21.00;90.70;;;;;;5009936;28;20474;-73
2021/05/08 13:46:22;;;;;;;4.90;1.15;;;21.00;90.60;;;;;;5011251;28;20026;-72
2021/05/08 13:48:48;;;;;;;2.30;1.00;;;21.10;90.70;;;;;;5011177;28;20030;-73
2021/05/08 13:51:15;;;;;;;3.70;1.00;;;21.10;90.80;;;;;;5011893;28;20077;-72
2021/05/08 13:53:40;;;;;;;1.05;0.95;;;21.00;90.50;;;;;;5010504;28;20453;-71
2021/05/08 13:56:07;;;;;;;1.75;1.02;;;20.90;90.40;;;;;;4999986;28;20034;-75
2021/05/08 13:58:34;;;;;;;3.30;1.00;;;20.80;90.20;;;;;;5008869;28;20042;-72
2021/05/08 14:01:00;;;;;;;5.53;1.10;;;20.80;90.70;;;;;;5004694;28;20092;-71
2021/05/08 14:03:25;;;;;;;1.10;0.93;;;20.90;90.30;;;;;;4991766;28;20035;-80
2021/05/08 14:05:52;;;;;;;2.28;1.05;;;20.80;90.50;;;;;;5009751;28;20036;-74
2021/05/08 14:08:17;;;;;;;3.83;1.15;;;20.80;90.60;;;;;;5011321;28;20033;-71
2021/05/08 14:10:43;;;;;;;2.03;1.27;;;20.80;90.10;;;;;;5011248;28;20101;-73
2021/05/08 14:13:09;;;;;;;1.52;0.88;;;20.70;90.40;;;;;;5010785;28;20052;-71
2021/05/08 14:15:34;;;;;;;2.58;0.98;;;20.70;90.40;;;;;;5011001;28;20029;-71
2021/05/08 14:18:00;;;;;;;3.65;1.20;;;20.70;90.40;;;;;;5011059;28;20639;-75
2021/05/08 14:20:27;;;;;;;5.82;1.48;;;20.80;90.90;;;;;;5010875;28;20386;-72
2021/05/08 14:22:53;;;;;;;5.15;1.27;;;20.80;91.10;;;;;;5010119;28;20384;-76
2021/05/08 14:25:18;;;;;;;9.18;1.27;;;20.80;91.80;;;;;;5003356;28;20025;-72
2021/05/08 14:27:44;;;;;;;2.05;0.70;;;20.80;92.60;;;;;;5003898;28;20042;-71
2021/05/08 14:30:11;;;;;;;1.50;1.02;;;20.70;93.50;;;;;;5008586;28;20037;-73
2021/05/08 14:32:39;;;;;;;2.08;0.90;;;20.80;93.60;;;;;;5012973;28;20371;-71
2021/05/08 14:35:05;;;;;;;1.58;1.15;;;20.70;91.80;;;;;;5007152;28;20046;-80
2021/05/08 14:37:31;;;;;;;4.50;0.95;;;20.70;92.00;;;;;;5009363;28;20083;-71
2021/05/08 14:39:57;;;;;;;5.80;1.40;;;20.70;95.00;;;;;;5010452;28;20042;-75
2021/05/08 14:42:23;;;;;;;10.43;1.63;;;20.60;95.90;;;;;;5010955;28;20030;-73
2021/05/08 14:44:49;;;;;;;3.10;1.58;;;20.50;95.60;;;;;;4995047;28;20037;-79
2021/05/08 14:47:15;;;;;;;2.22;1.25;;;20.40;96.10;;;;;;4996532;28;20031;-79
2021/05/08 14:49:43;;;;;;;2.65;1.27;;;20.30;97.60;;;;;;5008479;28;20509;-76
2021/05/08 14:52:12;;;;;;;6.88;1.30;;;20.40;97.20;;;;;;5008576;28;20041;-75
2021/05/08 14:54:38;;;;;;;5.22;2.08;;;20.30;95.20;;;;;;5007126;28;20042;-75
2021/05/08 14:57:04;;;;;;;3.70;1.23;;;20.20;93.80;;;;;;5007223;28;20045;-79
2021/05/08 14:59:30;;;;;;;3.20;1.17;;;20.20;92.70;;;;;;5023409;28;20065;-74
2021/05/08 15:01:57;;;;;;;4.85;1.27;;;20.10;93.50;;;;;;5023745;28;20062;-74
2021/05/08 15:04:24;;;;;;;6.90;1.42;;;20.10;94.00;;;;;;5005637;28;20038;-74
2021/05/08 15:06:50;;;;;;;1.75;0.80;;;20.10;95.10;;;;;;5004622;28;20030;-73
2021/05/08 15:09:16;;;;;;;2.10;1.02;;;20.10;96.10;;;;;;5016243;28;20105;-72
2021/05/08 15:11:42;;;;;;;2.78;2.08;;;20.00;96.50;;;;;;5019363;28;20042;-72
2021/05/08 15:14:08;;;;;;;2.97;1.00;;;19.90;97.50;;;;;;5010523;28;20034;-72
2021/05/08 15:16:34;;;;;;;3.85;1.50;;;19.90;98.00;;;;;;5008333;28;20045;-74
2021/05/08 15:19:00;;;;;;;3.67;0.77;;;19.90;97.80;;;;;;5013608;28;20092;-76
2021/05/08 15:21:25;;;;;;;2.80;1.00;;;20.00;96.90;;;;;;4998774;28;20527;-71
2021/05/08 15:23:51;;;;;;;1.85;0.88;;;19.90;97.20;;;;;;5014439;28;20071;-75
2021/05/08 15:26:17;;;;;;;3.55;1.23;;;19.90;97.10;;;;;;5012900;28;20037;-74
2021/05/08 15:28:43;;;;;;;1.88;1.10;;;19.90;97.70;;;;;;5008710;28;20041;-71
2021/05/08 15:31:08;;;;;;;2.42;1.02;;;19.80;98.00;;;;;;5011615;28;20398;-82
2021/05/08 15:33:34;;;;;;;5.10;1.10;;;19.70;97.40;;;;;;5009883;28;20052;-73
2021/05/08 15:36:00;;;;;;;1.75;1.05;;;19.70;97.10;;;;;;5012318;28;20044;-73
2021/05/08 15:38:28;;;;;;;4.22;1.33;;;19.60;97.10;;;;;;5013644;28;20084;-73
2021/05/08 15:40:55;;;;;;;4.80;1.45;;;19.60;97.90;;;;;;5008180;28;20034;-73
2021/05/08 15:43:20;;;;;;;3.63;0.90;;;19.60;98.40;;;;;;5005180;28;20574;-73
2021/05/08 15:45:47;;;;;;;2.88;1.38;;;19.60;98.00;;;;;;5000851;28;20494;-72
2021/05/08 15:48:13;;;;;;;0.95;0.73;;;19.60;98.30;;;;;;5010121;28;20031;-75
2021/05/08 15:50:39;;;;;;;2.97;1.40;;;19.40;98.20;;;;;;5009185;28;20041;-76
2021/05/08 15:53:05;;;;;;;4.28;1.10;;;19.40;98.60;;;;;;5010036;28;20081;-75
2021/05/08 15:55:31;;;;;;;5.88;1.40;;;19.30;98.50;;;;;;5009469;28;20092;-73
2021/05/08 15:57:57;;;;;;;7.80;0.95;;;19.30;98.50;;;;;;5019959;28;20128;-73
2021/05/08 16:00:23;;;;;;;3.20;1.13;;;19.30;98.60;;;;;;5008958;28;20034;-72
2021/05/08 16:02:49;;;;;;;4.15;0.98;;;19.30;98.90;;;;;;5013462;28;20033;-71
2021/05/08 16:05:17;;;;;;;1.60;0.80;;;19.20;99.10;;;;;;5013620;28;20026;-76
2021/05/08 16:07:44;;;;;;;3.25;0.88;;;19.20;99.70;;;;;;5003908;28;20486;-73
2021/05/08 16:10:15;;;;;;;1.45;1.00;;;19.20;99.90;;;;;;5019012;28;20120;-74
2021/05/08 16:12:40;;;;;;;5.75;1.10;;;19.20;99.50;;;;;;5009387;28;20052;-85
2021/05/08 16:15:07;;;;;;;2.92;1.25;;;19.20;98.60;;;;;;5004418;28;20034;-72
2021/05/08 16:17:32;;;;;;;2.60;0.90;;;19.20;99.50;;;;;;5008199;28;20080;-73
2021/05/08 16:19:58;;;;;;;2.00;1.20;;;19.10;99.70;;;;;;5001499;28;20058;-71
2021/05/08 16:22:23;;;;;;;3.70;1.13;;;19.10;99.40;;;;;;5012845;28;20045;-76
2021/05/08 16:24:49;;;;;;;2.97;1.00;;;19.20;99.20;;;;;;5005768;28;20034;-74
2021/05/08 16:27:15;;;;;;;1.55;0.80;;;19.20;99.40;;;;;;5013247;28;20092;-72
2021/05/08 16:29:40;;;;;;;2.50;1.00;;;19.10;99.40;;;;;;5009860;28;20060;-72
2021/05/08 16:32:07;;;;;;;2.92;0.88;;;19.10;99.80;;;;;;5007664;28;20470;-72
2021/05/08 16:34:33;;;;;;;2.13;0.93;;;19.00;99.90;;;;;;5012473;28;20030;-71
2021/05/08 16:36:59;;;;;;;3.35;0.98;;;18.90;99.90;;;;;;5012883;28;20034;-72
2021/05/08 16:39:25;;;;;;;2.38;1.40;;;18.90;99.90;;;;;;5013849;28;20501;-73
2021/05/08 16:41:51;;;;;;;6.80;1.10;;;18.90;99.90;;;;;;5011907;28;20046;-73
2021/05/08 16:44:17;;;;;;;2.10;0.90;;;18.90;99.90;;;;;;5012214;28;20028;-74
2021/05/08 16:46:43;;;;;;;3.60;1.20;;;18.90;99.90;;;;;;5010893;28;20033;-72
2021/05/08 16:49:09;;;;;;;2.05;1.40;;;18.90;99.90;;;;;;5011943;28;20029;-75
2021/05/08 16:51:36;;;;;;;4.47;1.00;;;18.80;99.90;;;;;;5010415;28;20033;-74
2021/05/08 16:54:03;;;;;;;6.38;1.02;;;18.80;99.90;;;;;;5008397;28;20481;-73
2021/05/08 16:56:30;;;;;;;3.60;1.10;;;18.80;99.90;;;;;;5013390;28;20041;-76
2021/05/08 16:58:55;;;;;;;5.10;1.13;;;18.80;99.90;;;;;;5006643;28;20030;-81
2021/05/08 17:01:21;;;;;;;3.53;1.10;;;18.80;99.90;;;;;;5010828;28;20033;-83
2021/05/08 17:03:47;;;;;;;3.35;0.88;;;18.80;99.90;;;;;;5011369;28;20026;-83
2021/05/08 17:06:13;;;;;;;3.22;1.00;;;18.80;99.90;;;;;;5010505;28;20041;-84
2021/05/08 17:08:38;;;;;;;1.65;1.00;;;18.70;99.90;;;;;;5011734;28;20129;-76
2021/05/08 17:11:05;;;;;;;4.22;1.13;;;18.60;99.90;;;;;;5010524;28;20033;-77
2021/05/08 17:13:31;;;;;;;3.10;1.42;;;18.60;99.90;;;;;;5010699;28;20093;-72
2021/05/08 17:15:56;;;;;;;2.45;1.98;;;18.60;99.90;;;;;;4997553;28;20450;-72
2021/05/08 17:18:22;;;;;;;6.25;1.52;;;18.50;99.90;;;;;;5004316;28;20111;-72
2021/05/08 17:20:48;;;;;;;2.80;1.30;;;18.50;99.90;;;;;;5008911;28;20022;-73
2021/05/08 17:23:14;;;;;;;2.72;1.10;;;18.40;99.90;;;;;;5005017;28;20375;-74
2021/05/08 17:25:40;;;;;;;6.53;1.20;;;18.30;99.90;;;;;;5011653;28;20439;-73
2021/05/08 17:28:06;;;;;;;4.15;1.20;;;18.30;99.90;;;;;;5003977;28;20040;-74
2021/05/08 17:30:33;;;;;;;4.32;0.98;;;18.20;99.90;;;;;;5006255;28;20397;-71
2021/05/08 17:32:59;;;;;;;2.10;1.08;;;18.20;99.90;;;;;;5010091;28;20038;-72
2021/05/08 17:35:25;;;;;;;2.88;1.58;;;18.10;99.90;;;;;;5006157;28;20104;-73
2021/05/08 17:37:50;;;;;;;5.20;1.23;;;18.10;99.90;;;;;;5010672;28;20395;-72
2021/05/08 17:40:16;;;;;;;3.00;1.20;;;18.10;99.90;;;;;;5013083;28;20494;-72
2021/05/08 17:42:42;;;;;;;2.15;1.20;;;18.00;99.90;;;;;;5009380;28;20049;-74
2021/05/08 17:45:08;;;;;;;1.25;1.00;;;18.00;99.90;;;;;;5010309;28;20029;-73
2021/05/08 17:47:34;;;;;;;2.78;1.27;;;17.90;99.90;;;;;;5007806;28;20038;-79
2021/05/08 17:50:00;;;;;;;3.45;1.15;;;17.90;99.90;;;;;;5004155;28;20096;-72
2021/05/08 17:52:25;;;;;;;7.20;1.40;;;17.80;99.90;;;;;;5012330;28;20038;-76
2021/05/08 17:54:51;;;;;;;5.45;1.73;;;17.80;99.90;;;;;;5012731;28;20052;-88
2021/05/08 17:57:17;;;;;;;2.75;1.80;;;17.80;99.90;;;;;;5007716;28;20026;-74
2021/05/08 17:59:42;;;;;;;6.70;1.98;;;17.70;99.90;;;;;;5008385;28;20045;-76
2021/05/08 18:02:12;;;;;;;5.03;1.50;;;17.70;99.90;;;;;;5008270;28;20037;-75
2021/05/08 18:04:38;;;;;;;2.72;1.35;;;17.70;99.90;;;;;;5009193;28;20058;-72
2021/05/08 18:07:04;;;;;;;4.93;2.10;;;17.70;99.90;;;;;;5010950;28;20101;-77
2021/05/08 18:09:31;;;;;;;2.33;1.20;;;17.60;99.90;;;;;;5011184;28;20141;-71
2021/05/08 18:11:57;;;;;;;1.83;1.20;;;17.50;99.90;;;;;;5009981;28;20029;-72
2021/05/08 18:14:24;;;;;;;14.30;1.88;;;17.50;99.90;;;;;;5017875;28;20037;-74
2021/05/08 18:16:50;;;;;;;4.93;1.55;;;17.40;99.90;;;;;;5006225;28;20599;-78
2021/05/08 18:19:17;;;;;;;4.03;1.45;;;17.40;99.90;;;;;;5011297;28;20034;-71
2021/05/08 18:21:43;;;;;;;2.47;1.75;;;17.20;99.90;;;;;;5011261;28;20026;-71
2021/05/08 18:24:09;;;;;;;3.25;1.90;;;17.20;99.90;;;;;;5002415;28;20035;-75
2021/05/08 18:26:35;;;;;;;2.95;1.75;;;17.10;99.90;;;;;;5008689;28;20398;-75
2021/05/08 18:29:03;;;;;;;5.55;1.95;;;17.00;99.90;;;;;;4995935;28;20042;-79
2021/05/08 18:31:29;;;;;;;4.53;1.60;;;16.90;99.90;;;;;;5006163;28;20030;-75
2021/05/08 18:33:55;;;;;;;6.15;2.80;;;16.90;99.90;;;;;;4996921;28;20073;-69
2021/05/08 18:36:21;;;;;;;16.92;3.00;;;16.90;99.90;;;;;;5010304;28;20039;-71
2021/05/08 18:38:47;;;;;;;37.60;17.92;;;16.80;99.90;;;;;;5013919;28;20030;-70